createdAt,value
2022-12-01T00:01:36.944Z,13.60
2022-12-01T00:04:03.841Z,15.38
2022-12-01T00:06:31.761Z,15.60
2022-12-01T00:09:21.227Z,13.38
2022-12-01T00:11:48.088Z,13.48
2022-12-01T00:14:16.606Z,11.07
2022-12-01T00:16:46.121Z,14.65
2022-12-01T00:19:14.352Z,13.52
2022-12-01T00:21:41.368Z,12.75
2022-12-01T00:24:09.378Z,11.93
2022-12-01T00:26:39.455Z,13.15
2022-12-01T00:29:06.337Z,12.30
2022-12-01T00:31:36.062Z,15.68
2022-12-01T00:34:05.737Z,12.18
2022-12-01T00:36:40.063Z,12.20
2022-12-01T00:39:09.118Z,10.88
2022-12-01T00:41:35.864Z,12.90
2022-12-01T00:44:02.806Z,14.82
2022-12-01T00:46:29.628Z,11.82
2022-12-01T00:48:56.310Z,16.10
2022-12-01T00:51:27.527Z,15.13
2022-12-01T00:53:56.288Z,13.52
2022-12-01T00:56:23.062Z,19.83
2022-12-01T00:58:49.911Z,19.90
2022-12-01T01:01:17.926Z,20.40
2022-12-01T01:03:46.516Z,17.83
2022-12-01T01:06:16.079Z,20.13
2022-12-01T01:08:42.783Z,21.33
2022-12-01T01:11:11.747Z,27.48
2022-12-01T01:13:38.472Z,20.70
2022-12-01T01:16:14.601Z,23.17
2022-12-01T01:18:41.218Z,22.90
2022-12-01T01:21:11.093Z,21.33
2022-12-01T01:23:40.889Z,24.92
2022-12-01T01:26:14.292Z,25.17
2022-12-01T01:28:41.047Z,22.33
2022-12-01T01:31:12.244Z,17.63
2022-12-01T01:33:38.967Z,18.45
2022-12-01T01:36:05.864Z,20.02
2022-12-01T01:38:33.456Z,20.40
2022-12-01T01:41:06.665Z,20.73
2022-12-01T01:43:59.038Z,21.90
2022-12-01T01:46:33.132Z,16.87
2022-12-01T01:49:07.542Z,20.15
2022-12-01T01:51:48.271Z,21.85
2022-12-01T01:54:23.420Z,24.17
2022-12-01T01:56:51.790Z,21.95
2022-12-01T01:59:30.963Z,19.88
2022-12-01T02:02:13.155Z,19.10
2022-12-01T02:04:46.755Z,22.08
2022-12-01T02:07:18.346Z,18.08
2022-12-01T02:09:45.410Z,19.73
2022-12-01T02:12:32.148Z,21.70
2022-12-01T02:15:10.604Z,19.25
2022-12-01T02:17:51.506Z,23.27
2022-12-01T02:21:04.158Z,21.35
2022-12-01T02:23:54.832Z,23.95
2022-12-01T02:26:45.840Z,22.08
2022-12-01T02:29:38.756Z,21.67
2022-12-01T02:32:46.223Z,22.85
2022-12-01T02:35:47.630Z,22.15
2022-12-01T02:38:28.096Z,18.92
2022-12-01T02:41:09.958Z,22.38
2022-12-01T02:43:58.334Z,21.35
2022-12-01T02:46:40.034Z,20.02
2022-12-01T02:49:52.119Z,23.52
2022-12-01T02:52:22.897Z,15.75
2022-12-01T02:54:52.567Z,18.88
2022-12-01T02:57:20.366Z,19.70
2022-12-01T02:59:51.669Z,21.00
2022-12-01T03:02:33.337Z,19.05
2022-12-01T03:05:10.395Z,18.17
2022-12-01T03:07:55.568Z,20.85
2022-12-01T03:10:23.864Z,19.50
2022-12-01T03:13:09.453Z,20.60
2022-12-01T03:16:08.494Z,22.52
2022-12-01T03:18:42.428Z,24.00
2022-12-01T03:21:16.211Z,22.02
2022-12-01T03:23:49.604Z,20.35
2022-12-01T03:26:21.051Z,21.48
2022-12-01T03:28:56.943Z,23.50
2022-12-01T03:31:34.421Z,21.35
2022-12-01T03:34:26.696Z,23.08
2022-12-01T03:37:00.523Z,23.95
2022-12-01T03:39:32.661Z,20.40
2022-12-01T03:42:08.671Z,21.63
2022-12-01T03:44:51.886Z,24.33
2022-12-01T03:47:28.672Z,25.58
2022-12-01T03:49:59.581Z,24.75
2022-12-01T03:52:48.936Z,19.55
2022-12-01T03:55:31.082Z,21.13
2022-12-01T03:58:18.394Z,26.97
2022-12-01T04:00:50.829Z,23.83
2022-12-01T04:03:19.321Z,22.45
2022-12-01T04:05:51.058Z,20.80
2022-12-01T04:08:20.814Z,27.55
2022-12-01T04:10:47.515Z,21.73
2022-12-01T04:13:36.379Z,21.88
2022-12-01T04:16:05.406Z,24.38
2022-12-01T04:18:32.059Z,23.00
2022-12-01T04:20:58.832Z,24.67
2022-12-01T04:23:44.053Z,21.55
2022-12-01T04:26:15.987Z,25.70
2022-12-01T04:28:44.915Z,27.02
2022-12-01T04:31:11.614Z,24.10
2022-12-01T04:33:38.298Z,22.55
2022-12-01T04:36:05.371Z,20.98
2022-12-01T04:38:36.437Z,20.77
2022-12-01T04:41:13.153Z,24.23
2022-12-01T04:43:41.043Z,21.98
2022-12-01T04:46:08.263Z,24.40
2022-12-01T04:48:36.395Z,25.95
2022-12-01T04:51:05.213Z,22.92
2022-12-01T04:53:32.496Z,26.63
2022-12-01T04:56:00.285Z,22.42
2022-12-01T04:58:28.263Z,26.90
2022-12-01T05:01:02.703Z,24.95
2022-12-01T05:03:29.732Z,25.00
2022-12-01T05:06:23.090Z,24.05
2022-12-01T05:08:51.017Z,26.40
2022-12-01T05:11:18.177Z,29.48
2022-12-01T05:13:48.739Z,28.27
2022-12-01T05:19:40.194Z,28.13
2022-12-01T05:22:08.965Z,25.80
2022-12-01T05:24:37.937Z,21.75
2022-12-01T05:27:10.743Z,28.27
2022-12-01T05:29:39.746Z,23.77
2022-12-01T05:32:06.381Z,27.60
2022-12-01T05:34:37.933Z,24.70
2022-12-01T05:37:05.185Z,32.63
2022-12-01T05:39:32.030Z,23.17
2022-12-01T05:41:58.613Z,24.17
2022-12-01T05:44:28.043Z,23.55
2022-12-01T05:46:55.465Z,23.40
2022-12-01T05:49:22.127Z,21.25
2022-12-01T05:51:51.083Z,21.13
2022-12-01T05:54:18.958Z,22.80
2022-12-01T05:56:45.649Z,18.45
2022-12-01T05:59:12.449Z,25.55
2022-12-01T06:01:41.275Z,23.60
2022-12-01T06:04:10.596Z,21.35
2022-12-01T06:06:40.909Z,23.15
2022-12-01T06:09:07.799Z,21.83
2022-12-01T06:11:35.863Z,27.10
2022-12-01T06:14:02.608Z,24.13
2022-12-01T06:16:32.953Z,26.10
2022-12-01T06:19:02.278Z,20.13
2022-12-01T06:21:28.976Z,23.35
2022-12-01T06:23:55.693Z,20.27
2022-12-01T06:26:22.772Z,20.98
2022-12-01T06:28:49.497Z,25.70
2022-12-01T06:31:16.115Z,20.38
2022-12-01T06:33:42.958Z,26.00
2022-12-01T06:36:36.789Z,20.58
2022-12-01T06:39:17.217Z,22.45
2022-12-01T06:41:43.966Z,28.05
2022-12-01T06:44:10.787Z,23.95
2022-12-01T06:46:37.914Z,20.85
2022-12-01T06:49:10.033Z,21.35
2022-12-01T06:51:41.357Z,25.63
2022-12-01T06:54:15.108Z,23.55
2022-12-01T06:56:42.532Z,23.70
2022-12-01T06:59:14.930Z,22.38
2022-12-01T07:01:42.158Z,24.70
2022-12-01T07:04:09.108Z,23.90
2022-12-01T07:06:36.700Z,31.63
2022-12-01T07:09:04.365Z,26.17
2022-12-01T07:11:35.779Z,29.38
2022-12-01T07:14:20.169Z,22.33
2022-12-01T07:17:02.781Z,21.77
2022-12-01T07:25:33.101Z,18.92
2022-12-01T07:28:12.092Z,26.08
2022-12-01T07:30:39.234Z,19.50
2022-12-01T07:41:50.895Z,16.05
2022-12-01T07:44:22.321Z,20.48
2022-12-01T07:47:44.458Z,23.20
2022-12-01T07:52:56.074Z,19.17
2022-12-01T07:55:56.868Z,17.42
2022-12-01T08:01:28.396Z,15.15
2022-12-01T08:04:03.130Z,21.77
2022-12-01T08:09:35.803Z,24.20
2022-12-01T08:12:17.516Z,18.35
2022-12-01T08:18:11.996Z,19.05
2022-12-01T08:23:34.181Z,21.38
2022-12-01T08:26:36.146Z,17.75
2022-12-01T08:29:04.815Z,20.17
2022-12-01T08:32:06.575Z,18.25
2022-12-01T08:37:40.072Z,20.13
2022-12-01T08:40:09.646Z,17.95
2022-12-01T08:42:39.299Z,25.30
2022-12-01T08:45:17.454Z,18.65
2022-12-01T08:47:53.507Z,20.17
2022-12-01T08:56:35.835Z,20.27
2022-12-01T08:59:05.319Z,20.23
2022-12-01T09:01:51.565Z,22.05
2022-12-01T09:04:23.327Z,19.73
2022-12-01T09:06:59.808Z,19.73
2022-12-01T09:09:28.829Z,17.92
2022-12-01T09:11:56.968Z,20.73
2022-12-01T09:14:25.009Z,17.42
2022-12-01T09:16:57.868Z,22.15
2022-12-01T09:19:27.872Z,19.60
2022-12-01T09:21:56.915Z,19.73
2022-12-01T09:24:24.246Z,21.33
2022-12-01T09:27:02.847Z,17.55
2022-12-01T09:29:30.349Z,25.63
2022-12-01T09:32:00.205Z,21.63
2022-12-01T09:34:29.484Z,22.83
2022-12-01T09:40:19.190Z,24.95
2022-12-01T09:43:06.942Z,26.02
2022-12-01T09:46:02.277Z,18.55
2022-12-01T09:49:22.222Z,20.15
2022-12-01T09:51:56.228Z,23.90
2022-12-01T09:54:32.234Z,21.00
2022-12-01T09:57:31.535Z,20.83
2022-12-01T10:00:50.729Z,25.38
2022-12-01T10:03:49.094Z,26.38
2022-12-01T10:06:28.213Z,18.65
2022-12-01T10:09:31.385Z,22.17
2022-12-01T10:12:33.498Z,18.48
2022-12-01T10:15:17.594Z,19.25
2022-12-01T10:17:51.818Z,17.25
2022-12-01T10:20:24.337Z,18.83
2022-12-01T10:23:36.805Z,19.48
2022-12-01T10:26:32.601Z,19.20
2022-12-01T10:29:47.920Z,20.05
2022-12-01T10:32:47.667Z,20.40
2022-12-01T10:35:37.090Z,21.35
2022-12-01T10:38:37.930Z,21.05
2022-12-01T10:41:38.296Z,20.13
2022-12-01T10:44:07.001Z,20.92
2022-12-01T10:47:00.101Z,22.27
2022-12-01T10:49:41.964Z,18.23
2022-12-01T10:52:50.057Z,21.70
2022-12-01T10:55:44.856Z,24.30
2022-12-01T10:58:47.210Z,19.05
2022-12-01T11:01:36.533Z,18.40
2022-12-01T11:04:08.732Z,20.35
2022-12-01T11:06:36.807Z,24.13
2022-12-01T11:09:32.940Z,21.42
2022-12-01T11:12:04.656Z,34.78
2022-12-01T11:14:53.277Z,23.83
2022-12-01T11:17:34.049Z,22.98
2022-12-01T11:20:55.653Z,47.50
2022-12-01T11:23:31.507Z,36.72
2022-12-01T11:26:27.777Z,20.33
2022-12-01T11:29:26.459Z,22.23
2022-12-01T11:31:55.450Z,23.13
2022-12-01T11:34:24.601Z,23.60
2022-12-01T11:37:05.409Z,23.50
2022-12-01T11:39:41.888Z,23.95
2022-12-01T11:42:29.065Z,19.80
2022-12-01T11:45:24.259Z,20.70
2022-12-01T11:48:28.707Z,16.80
2022-12-01T11:51:21.605Z,15.98
2022-12-01T11:53:48.600Z,16.60
2022-12-01T11:56:22.921Z,18.67
2022-12-01T11:59:45.621Z,20.75
2022-12-01T12:02:24.263Z,15.75
2022-12-01T12:05:21.714Z,23.67
2022-12-01T12:17:47.211Z,19.95
2022-12-01T12:20:30.730Z,19.50
2022-12-01T12:23:12.629Z,22.80
2022-12-01T12:26:10.861Z,18.03
2022-12-01T12:28:49.665Z,18.10
2022-12-01T12:31:35.041Z,22.55
2022-12-01T12:34:23.020Z,18.40
2022-12-01T12:37:34.663Z,16.08
2022-12-01T12:40:54.107Z,21.25
2022-12-01T12:43:47.295Z,21.88
2022-12-01T12:52:39.950Z,18.83
2022-12-01T12:56:01.453Z,18.02
2022-12-01T12:58:46.802Z,18.52
2022-12-01T13:01:22.174Z,17.10
2022-12-01T13:04:12.750Z,19.73
2022-12-01T13:07:02.669Z,19.40
2022-12-01T13:09:40.898Z,22.83
2022-12-01T13:12:31.672Z,18.05
2022-12-01T13:15:16.124Z,17.38
2022-12-01T13:17:51.014Z,17.85
2022-12-01T13:20:26.926Z,21.95
2022-12-01T13:22:59.239Z,18.13
2022-12-01T13:25:38.968Z,18.48
2022-12-01T13:28:18.050Z,21.38
2022-12-01T13:31:18.070Z,21.23
2022-12-01T13:33:55.512Z,18.00
2022-12-01T13:36:45.779Z,18.30
2022-12-01T13:39:35.632Z,18.48
2022-12-01T13:42:31.081Z,22.08
2022-12-01T13:45:00.724Z,16.20
2022-12-01T13:47:32.407Z,21.13
2022-12-01T13:50:53.324Z,16.17
2022-12-01T13:53:27.551Z,15.95
2022-12-01T13:55:57.273Z,20.10
2022-12-01T13:58:51.179Z,18.65
2022-12-01T14:01:30.644Z,16.08
2022-12-01T14:04:12.608Z,17.20
2022-12-01T14:06:48.471Z,16.50
2022-12-01T14:09:29.288Z,16.30
2022-12-01T14:12:16.708Z,19.75
2022-12-01T14:14:54.043Z,18.63
2022-12-01T14:17:28.018Z,21.23
2022-12-01T14:20:18.119Z,14.88
2022-12-01T14:22:49.641Z,15.02
2022-12-01T14:25:19.539Z,17.05
2022-12-01T14:28:10.156Z,18.85
2022-12-01T14:30:48.152Z,15.07
2022-12-01T14:33:36.714Z,16.15
2022-12-01T14:36:14.212Z,14.63
2022-12-01T14:38:46.602Z,16.95
2022-12-01T14:41:25.247Z,18.45
2022-12-01T14:44:06.875Z,14.98
2022-12-01T14:46:49.115Z,22.10
2022-12-01T14:49:26.124Z,15.40
2022-12-01T14:51:58.739Z,18.02
2022-12-01T14:54:53.929Z,16.27
2022-12-01T14:57:40.759Z,17.42
2022-12-01T15:00:15.056Z,22.05
2022-12-01T15:03:02.146Z,24.73
2022-12-01T15:05:31.633Z,20.50
2022-12-01T15:08:40.219Z,21.52
2022-12-01T15:11:10.912Z,21.25
2022-12-01T15:13:47.487Z,17.90
2022-12-01T15:16:18.507Z,17.70
2022-12-01T15:18:49.813Z,19.95
2022-12-01T15:21:31.771Z,20.03
2022-12-01T15:23:59.575Z,17.15
2022-12-01T15:26:53.192Z,17.27
2022-12-01T15:29:30.478Z,21.15
2022-12-01T15:32:07.724Z,19.23
2022-12-01T15:34:42.998Z,21.73
2022-12-01T15:37:22.708Z,21.85
2022-12-01T15:39:52.464Z,20.65
2022-12-01T15:42:25.359Z,22.73
2022-12-01T15:45:21.231Z,19.15
2022-12-01T15:48:17.997Z,20.92
2022-12-01T15:50:58.455Z,23.10
2022-12-01T15:53:34.673Z,22.23
2022-12-01T15:56:05.297Z,24.40
2022-12-01T15:58:45.239Z,23.60
2022-12-01T16:01:20.647Z,30.25
2022-12-01T16:03:58.431Z,34.40
2022-12-01T16:06:33.190Z,24.52
2022-12-01T16:09:27.834Z,25.95
2022-12-01T16:12:20.361Z,20.45
2022-12-01T16:14:53.978Z,16.73
2022-12-01T16:17:21.733Z,25.67
2022-12-01T16:19:48.663Z,22.55
2022-12-01T16:22:21.561Z,26.70
2022-12-01T16:24:52.205Z,28.83
2022-12-01T16:27:30.716Z,48.53
2022-12-01T16:30:06.336Z,31.48
2022-12-01T16:32:45.210Z,24.45
2022-12-01T16:35:34.007Z,30.13
2022-12-01T16:38:19.769Z,25.33
2022-12-01T16:40:51.598Z,23.35
2022-12-01T16:43:23.163Z,22.58
2022-12-01T16:45:56.954Z,22.58
2022-12-01T16:48:30.933Z,22.15
2022-12-01T16:51:03.046Z,21.65
2022-12-01T16:53:29.788Z,22.83
2022-12-01T16:55:59.457Z,23.77
2022-12-01T16:58:27.045Z,25.90
2022-12-01T17:00:56.769Z,23.17
2022-12-01T17:03:25.980Z,26.05
2022-12-01T17:05:53.547Z,50.28
2022-12-01T17:08:20.792Z,41.53
2022-12-01T17:11:16.646Z,29.35
2022-12-01T17:13:52.095Z,26.52
2022-12-01T17:16:20.953Z,52.50
2022-12-01T17:18:48.219Z,41.92
2022-12-01T17:21:15.930Z,44.08
2022-12-01T17:32:45.894Z,25.05
2022-12-01T17:35:16.059Z,29.33
2022-12-01T17:37:43.583Z,22.65
2022-12-01T17:40:14.620Z,23.63
2022-12-01T17:42:50.263Z,23.20
2022-12-01T17:45:19.137Z,24.83
2022-12-01T17:53:07.972Z,26.65
2022-12-01T17:56:03.781Z,24.35
2022-12-01T17:58:55.967Z,26.65
2022-12-01T18:01:29.761Z,30.07
2022-12-01T18:04:02.927Z,21.23
2022-12-01T18:06:29.734Z,23.35
2022-12-01T18:09:00.968Z,20.23
2022-12-01T18:11:35.282Z,23.23
2022-12-01T18:14:04.073Z,27.63
2022-12-01T18:16:31.847Z,26.33
2022-12-01T18:19:03.022Z,35.10
2022-12-01T18:21:34.312Z,25.53
2022-12-01T18:24:12.209Z,36.17
2022-12-01T18:26:40.389Z,28.70
2022-12-01T18:29:17.734Z,24.52
2022-12-01T18:31:47.224Z,29.38
2022-12-01T18:34:14.226Z,44.42
2022-12-01T18:36:41.321Z,32.45
2022-12-01T18:43:24.237Z,58.97
2022-12-01T18:45:54.431Z,24.80
2022-12-01T18:48:21.231Z,36.92
2022-12-01T18:50:56.414Z,21.40
2022-12-01T18:53:30.249Z,23.60
2022-12-01T18:56:04.410Z,25.48
2022-12-01T18:58:33.748Z,23.90
2022-12-01T19:01:15.524Z,21.65
2022-12-01T19:03:42.294Z,22.77
2022-12-01T19:06:11.868Z,29.33
2022-12-01T19:09:07.105Z,22.60
2022-12-01T19:11:34.457Z,22.35
2022-12-01T19:14:03.937Z,22.70
2022-12-01T19:16:33.269Z,26.58
2022-12-01T19:19:02.533Z,22.48
2022-12-01T19:21:29.434Z,27.35
2022-12-01T19:23:59.247Z,23.02
2022-12-01T19:26:27.598Z,27.20
2022-12-01T19:28:54.420Z,24.65
2022-12-01T19:31:25.021Z,28.70
2022-12-01T19:33:55.700Z,33.45
2022-12-01T19:36:27.290Z,22.42
2022-12-01T19:39:21.594Z,29.23
2022-12-01T19:41:48.580Z,28.83
2022-12-01T19:47:36.316Z,25.50
2022-12-01T19:50:05.628Z,26.27
2022-12-01T20:01:26.948Z,26.65
2022-12-01T20:03:54.851Z,29.50
2022-12-01T20:06:26.358Z,31.38
2022-12-01T20:08:55.933Z,32.80
2022-12-01T20:11:23.508Z,25.15
2022-12-01T20:13:50.895Z,26.00
2022-12-01T20:16:20.626Z,30.20
2022-12-01T20:18:52.888Z,29.70
2022-12-01T20:21:30.950Z,23.70
2022-12-01T20:24:03.633Z,29.55
2022-12-01T20:26:41.542Z,23.02
2022-12-01T20:29:14.586Z,24.67
2022-12-01T20:31:47.092Z,25.30
2022-12-01T20:34:27.412Z,25.63
2022-12-01T20:37:19.309Z,26.15
2022-12-01T20:39:48.474Z,28.50
2022-12-01T20:42:18.367Z,27.77
2022-12-01T20:44:48.015Z,28.40
2022-12-01T20:47:22.095Z,30.23
2022-12-01T20:49:48.814Z,27.17
2022-12-01T20:52:15.704Z,30.83
2022-12-01T20:54:45.637Z,33.38
2022-12-01T20:57:16.217Z,28.13
2022-12-01T21:00:14.537Z,30.85
2022-12-01T21:02:45.245Z,28.58
2022-12-01T21:05:13.873Z,31.90
2022-12-01T21:07:47.746Z,30.23
2022-12-01T21:10:19.788Z,34.17
2022-12-01T21:13:16.245Z,33.97
2022-12-01T21:16:04.148Z,34.92
2022-12-01T21:19:05.500Z,30.13
2022-12-01T21:21:39.602Z,33.15
2022-12-01T21:24:33.496Z,33.57
2022-12-01T21:27:13.438Z,31.42
2022-12-01T21:29:44.017Z,30.08
2022-12-01T21:32:17.246Z,28.50
2022-12-01T21:34:46.102Z,34.63
2022-12-01T21:37:40.494Z,27.70
2022-12-01T21:40:24.501Z,30.55
2022-12-01T21:42:52.819Z,34.00
2022-12-01T21:45:31.472Z,33.78
2022-12-01T21:48:14.645Z,36.92
2022-12-01T21:50:41.594Z,29.23
2022-12-01T21:53:18.740Z,35.63
2022-12-01T21:55:46.963Z,30.15
2022-12-01T21:58:27.347Z,32.17
2022-12-01T22:00:56.290Z,30.48
2022-12-01T22:03:30.095Z,32.45
2022-12-01T22:06:31.321Z,38.28
2022-12-01T22:09:11.348Z,32.65
2022-12-01T22:11:38.113Z,32.55
2022-12-01T22:14:11.599Z,32.50
2022-12-01T22:17:08.500Z,38.22
2022-12-01T22:19:44.010Z,35.83
2022-12-01T22:22:10.625Z,38.85
2022-12-01T22:24:49.039Z,35.78
2022-12-01T22:33:19.539Z,35.10
2022-12-01T22:35:52.545Z,36.17
2022-12-01T22:38:30.009Z,43.70
2022-12-01T22:41:13.421Z,39.85
2022-12-01T22:43:48.163Z,39.70
2022-12-01T22:46:39.084Z,45.15
2022-12-01T22:49:05.745Z,36.35
2022-12-01T22:51:39.691Z,40.28
2022-12-01T22:54:13.566Z,35.08
2022-12-01T22:56:57.845Z,35.47
2022-12-01T22:59:39.686Z,36.55
2022-12-01T23:02:34.220Z,33.90
2022-12-01T23:05:23.400Z,37.50
2022-12-01T23:07:53.918Z,42.78
2022-12-01T23:10:20.713Z,44.63
2022-12-01T23:13:15.479Z,36.47
2022-12-01T23:16:09.657Z,39.95
2022-12-01T23:18:36.395Z,38.53
2022-12-01T23:21:06.751Z,36.03
2022-12-01T23:23:40.626Z,38.80
2022-12-01T23:26:08.830Z,38.00
2022-12-01T23:28:38.250Z,34.33
2022-12-01T23:31:09.776Z,35.25
2022-12-01T23:33:44.679Z,35.67
2022-12-01T23:38:47.291Z,40.95
2022-12-01T23:41:37.675Z,34.72
2022-12-01T23:44:18.258Z,38.97
2022-12-01T23:47:12.290Z,37.20
2022-12-01T23:49:43.052Z,38.08
2022-12-01T23:52:21.660Z,39.50
2022-12-01T23:54:53.015Z,46.78
2022-12-01T23:57:22.465Z,40.72
